Ana Sayfa
METAR-TAF:

METAR-TAF

Havaalanları :

Yukarı Rahova Havaalanı

Tırnova, Bulgaristan

Enlem: 43-09N, Boylam: 025-36E, yükseklik: 87 m

Güncel hava durumu gözlemi

Rapor saat 00:30 UTC de 21 dakika önce yapıldı.
Rüzgar doğudan 3 kt, kuzeydoğu ve güneydoğu arasında değişken
Sıcaklık 5°C
Nem 65%
Basınç 1005 hPa
Görüş mesafesi 10 km veya daha fazla

METAR: LBGO 260030Z AUTO 09003KT 040V130 9999 NCD 05/M01 Q1005

Saat: 02:51 (00:51 UTC)

Tahmin

Rapor saat 23:00 UTC de 1 saat ve 51 dakika önce yapıldı.
Ayın 26'si saat 00 UTC'den ayın 26'si saat 24 UTC'ye kadar geçerli Tahmin
Rüzgar değişken yönden 4 kt
Görüş mesafesi 10 km veya daha fazla
1500 m altında bulut yok ve kümülonimbus yok
Dönüşüyor
ayın 26'si saat 09 UTC'den ayın 26'si saat 11 UTC'ye kadar
Rüzgar güneydan 14 kt

TAF: LBGO 252300Z 2600/2624 VRB04KT CAVOK BECMG 2609/2611 17014KT

4.000'den fazla havaalanı için hava durumu gözlemleri ve tahminleri (METAR ve TAF raporları).

Kullanılabilir istasyonlar harita üzerinde sarı ve kırmızı noktalarla gösterilir.

İstasyonun adını görmek için fareyi noktanın üzerinde gezdirin.

Sonrasında hava gözlem ve tahminlerini görmek için tıklayın.

Haritayı değiştirmek için: yaklaştırmak için siyah artı işaretli yeşil düğmeye ve uzaklaştırmak için de eksi işaretli düğmeye hızla tıklayın; bitişik haritalar için yeşil okları kullanın.


METAR-TAF: